createdAt,value
2023-01-29T00:00:06.963Z,91.92
2023-01-29T00:02:40.793Z,91.92
2023-01-29T00:05:26.494Z,91.91
2023-01-29T00:07:58.606Z,92.16
2023-01-29T00:10:27.466Z,92.11
2023-01-29T00:12:55.358Z,92.11
2023-01-29T00:15:24.164Z,92.28
2023-01-29T00:17:52.090Z,91.75
2023-01-29T00:20:20.566Z,91.99
2023-01-29T00:22:49.071Z,91.77
2023-01-29T00:25:18.542Z,92.04
2023-01-29T00:27:46.770Z,91.89
2023-01-29T00:30:20.119Z,92.27
2023-01-29T00:32:48.399Z,92.13
2023-01-29T00:35:16.416Z,92.21
2023-01-29T00:37:45.320Z,91.66
2023-01-29T00:40:13.926Z,91.14
2023-01-29T00:43:03.455Z,91.17
2023-01-29T00:45:31.469Z,90.77
2023-01-29T00:47:59.413Z,90.65
2023-01-29T00:50:28.288Z,90.55
2023-01-29T00:52:56.241Z,90.54
2023-01-29T00:55:24.662Z,90.53
2023-01-29T00:57:53.917Z,91.36
2023-01-29T01:00:22.646Z,91.47
2023-01-29T01:03:08.054Z,91.14
2023-01-29T01:05:36.954Z,91.69
2023-01-29T01:08:28.051Z,91.77
2023-01-29T01:11:03.829Z,92.14
2023-01-29T01:13:35.631Z,91.79
2023-01-29T01:16:03.802Z,92.04
2023-01-29T01:18:32.112Z,92.27
2023-01-29T01:21:00.629Z,91.67
2023-01-29T01:23:28.596Z,92.07
2023-01-29T01:25:57.088Z,92.01
2023-01-29T01:28:25.807Z,92.44
2023-01-29T01:30:55.307Z,92.37
2023-01-29T01:33:23.423Z,93.20
2023-01-29T01:35:51.424Z,93.52
2023-01-29T01:38:19.395Z,93.79
2023-01-29T01:40:47.725Z,93.97
2023-01-29T01:43:17.448Z,94.40
2023-01-29T01:45:46.720Z,94.56
2023-01-29T01:48:21.166Z,94.60
2023-01-29T01:50:53.923Z,94.92
2023-01-29T01:53:25.000Z,95.24
2023-01-29T01:55:59.999Z,95.52
2023-01-29T01:58:33.546Z,95.41
2023-01-29T02:01:02.341Z,95.03
2023-01-29T02:03:54.502Z,94.98
2023-01-29T02:06:40.420Z,95.05
2023-01-29T02:09:34.011Z,94.97
2023-01-29T02:12:03.636Z,94.55
2023-01-29T02:14:32.191Z,94.75
2023-01-29T02:17:02.813Z,94.58
2023-01-29T02:19:42.947Z,94.49
2023-01-29T02:22:30.606Z,94.29
2023-01-29T02:25:31.502Z,94.56
2023-01-29T02:28:13.795Z,94.43
2023-01-29T02:30:46.235Z,94.37
2023-01-29T02:33:24.616Z,94.21
2023-01-29T02:36:00.332Z,94.70
2023-01-29T02:38:38.065Z,94.62
2023-01-29T02:41:12.677Z,94.30
2023-01-29T02:43:48.635Z,93.84
2023-01-29T02:46:22.336Z,93.95
2023-01-29T02:49:00.812Z,93.88
2023-01-29T02:51:37.506Z,93.82
2023-01-29T02:54:15.304Z,93.56
2023-01-29T02:56:50.003Z,93.25
2023-01-29T02:59:27.097Z,93.10
2023-01-29T03:01:59.770Z,93.16
2023-01-29T03:04:33.171Z,93.11
2023-01-29T03:07:04.901Z,93.15
2023-01-29T03:09:36.431Z,93.38
2023-01-29T03:12:19.960Z,93.47
2023-01-29T03:15:10.638Z,93.51
2023-01-29T03:17:41.444Z,93.54
2023-01-29T03:20:18.257Z,93.86
2023-01-29T03:22:53.392Z,94.02
2023-01-29T03:25:41.687Z,94.00
2023-01-29T03:28:30.878Z,94.06
2023-01-29T03:31:22.753Z,94.03
2023-01-29T03:34:03.911Z,94.05
2023-01-29T03:36:40.214Z,94.16
2023-01-29T03:39:11.485Z,93.80
2023-01-29T03:41:48.135Z,94.07
2023-01-29T03:44:19.635Z,94.44
2023-01-29T03:46:57.281Z,94.76
2023-01-29T03:49:33.745Z,94.89
2023-01-29T03:52:10.542Z,95.00
2023-01-29T03:54:47.887Z,94.87
2023-01-29T03:57:25.288Z,94.92
2023-01-29T03:59:58.673Z,94.55
2023-01-29T04:03:03.489Z,94.16
2023-01-29T04:05:41.171Z,94.76
2023-01-29T04:08:32.679Z,95.05
2023-01-29T04:11:15.868Z,94.98
2023-01-29T04:13:45.400Z,94.89
2023-01-29T04:16:20.647Z,94.59
2023-01-29T04:19:09.014Z,94.70
2023-01-29T04:21:41.634Z,94.56
2023-01-29T04:24:13.433Z,94.61
2023-01-29T04:27:01.653Z,94.58
2023-01-29T04:29:46.911Z,94.98
2023-01-29T04:32:20.143Z,94.76
2023-01-29T04:35:02.484Z,95.35
2023-01-29T04:37:40.005Z,95.15
2023-01-29T04:40:19.330Z,95.27
2023-01-29T04:42:56.147Z,95.41
2023-01-29T04:45:33.587Z,95.00
2023-01-29T04:48:11.461Z,95.43
2023-01-29T04:50:45.445Z,95.56
2023-01-29T04:53:20.060Z,95.76
2023-01-29T04:55:52.853Z,95.55
2023-01-29T04:58:28.358Z,95.96
2023-01-29T05:00:56.472Z,96.25
2023-01-29T05:03:27.636Z,96.51
2023-01-29T05:05:59.580Z,96.55
2023-01-29T05:08:30.044Z,96.71
2023-01-29T05:11:01.228Z,96.57
2023-01-29T05:13:32.857Z,96.53
2023-01-29T05:16:05.862Z,96.55
2023-01-29T05:18:34.760Z,96.27
2023-01-29T05:21:08.042Z,96.57
2023-01-29T05:23:36.510Z,96.48
2023-01-29T05:26:05.383Z,96.32
2023-01-29T05:28:33.812Z,96.39
2023-01-29T05:31:01.789Z,97.25
2023-01-29T05:33:33.043Z,97.42
2023-01-29T05:36:01.313Z,97.27
2023-01-29T05:38:31.098Z,97.53
2023-01-29T05:41:00.411Z,97.55
2023-01-29T05:43:28.388Z,97.27
2023-01-29T05:45:58.140Z,97.69
2023-01-29T05:48:28.137Z,99.01
2023-01-29T05:51:00.883Z,98.35
2023-01-29T05:53:32.402Z,97.43
2023-01-29T05:56:02.363Z,97.74
2023-01-29T05:58:32.650Z,97.69
2023-01-29T06:01:08.671Z,98.22
2023-01-29T06:03:39.284Z,98.65
2023-01-29T06:06:08.265Z,99.99
2023-01-29T06:08:37.994Z,98.43
2023-01-29T06:11:09.898Z,98.79
2023-01-29T06:13:38.144Z,98.46
2023-01-29T06:16:06.994Z,98.92
2023-01-29T06:18:37.032Z,98.75
2023-01-29T06:21:06.525Z,98.78
2023-01-29T06:23:34.975Z,98.54
2023-01-29T06:26:06.522Z,98.44
2023-01-29T06:28:34.817Z,98.20
2023-01-29T06:31:23.796Z,98.39
2023-01-29T06:33:53.199Z,98.03
2023-01-29T06:36:21.515Z,97.59
2023-01-29T06:38:49.653Z,97.37
2023-01-29T06:41:23.124Z,96.73
2023-01-29T06:43:52.737Z,96.40
2023-01-29T06:46:20.799Z,96.29
2023-01-29T06:48:49.200Z,96.33
2023-01-29T06:51:17.124Z,96.05
2023-01-29T06:53:46.540Z,96.17
2023-01-29T06:56:15.465Z,96.71
2023-01-29T06:58:44.824Z,96.19
2023-01-29T07:01:29.264Z,95.80
2023-01-29T07:04:03.025Z,96.24
2023-01-29T07:06:31.968Z,96.44
2023-01-29T07:09:00.563Z,96.21
2023-01-29T07:11:29.061Z,96.58
2023-01-29T07:13:58.436Z,96.65
2023-01-29T07:16:26.801Z,96.68
2023-01-29T07:18:55.818Z,96.90
2023-01-29T07:21:23.741Z,96.74
2023-01-29T07:23:52.490Z,96.71
2023-01-29T07:26:20.446Z,96.52
2023-01-29T07:28:48.506Z,96.25
2023-01-29T07:31:18.008Z,96.04
2023-01-29T07:33:47.150Z,96.21
2023-01-29T07:36:16.086Z,96.25
2023-01-29T07:38:44.060Z,96.20
2023-01-29T07:41:13.349Z,96.37
2023-01-29T07:43:46.663Z,96.78
2023-01-29T07:46:14.742Z,96.86
2023-01-29T07:48:44.080Z,97.08
2023-01-29T07:51:12.843Z,96.67
2023-01-29T07:53:40.718Z,96.95
2023-01-29T07:56:09.139Z,96.93
2023-01-29T07:58:37.530Z,97.20
2023-01-29T08:01:07.420Z,97.19
2023-01-29T08:03:35.939Z,96.85
2023-01-29T08:06:06.910Z,96.82
2023-01-29T08:08:34.971Z,96.72
2023-01-29T08:11:03.466Z,96.76
2023-01-29T08:13:32.381Z,96.66
2023-01-29T08:16:02.135Z,96.80
2023-01-29T08:18:31.543Z,96.41
2023-01-29T08:21:03.037Z,96.38
2023-01-29T08:23:32.421Z,95.85
2023-01-29T08:26:00.930Z,96.06
2023-01-29T08:28:29.406Z,96.38
2023-01-29T08:30:57.420Z,96.50
2023-01-29T08:33:38.636Z,96.38
2023-01-29T08:36:08.944Z,96.57
2023-01-29T08:38:38.420Z,95.91
2023-01-29T08:41:07.018Z,96.15
2023-01-29T08:43:37.360Z,95.90
2023-01-29T08:46:05.889Z,96.26
2023-01-29T08:48:34.348Z,96.19
2023-01-29T08:51:05.069Z,96.37
2023-01-29T08:53:33.306Z,96.31
2023-01-29T08:56:02.912Z,96.50
2023-01-29T08:58:31.391Z,96.75
2023-01-29T09:01:06.847Z,96.53
2023-01-29T09:03:35.773Z,96.36
2023-01-29T09:06:03.992Z,96.08
2023-01-29T09:08:32.351Z,95.70
2023-01-29T09:11:01.213Z,95.62
2023-01-29T09:13:30.817Z,95.14
2023-01-29T09:16:01.616Z,94.78
2023-01-29T09:18:30.253Z,94.45
2023-01-29T09:20:58.663Z,94.44
2023-01-29T09:23:27.559Z,94.17
2023-01-29T09:25:55.447Z,94.55
2023-01-29T09:28:23.909Z,94.65
2023-01-29T09:30:54.122Z,94.77
2023-01-29T09:33:22.218Z,94.64
2023-01-29T09:35:50.073Z,94.78
2023-01-29T09:38:18.795Z,94.56
2023-01-29T09:40:55.955Z,94.70
2023-01-29T09:43:33.798Z,94.81
2023-01-29T09:46:07.309Z,94.58
2023-01-29T09:48:37.908Z,94.16
2023-01-29T09:51:12.765Z,93.75
2023-01-29T09:53:47.777Z,94.16
2023-01-29T09:56:20.289Z,93.51
2023-01-29T09:58:49.925Z,93.53
2023-01-29T10:01:26.994Z,93.77
2023-01-29T10:04:15.453Z,93.84
2023-01-29T10:06:57.644Z,93.86
2023-01-29T10:09:47.138Z,94.23
2023-01-29T10:12:37.058Z,93.68
2023-01-29T10:15:19.449Z,93.62
2023-01-29T10:18:03.415Z,93.26
2023-01-29T10:20:45.294Z,92.86
2023-01-29T10:23:22.955Z,92.67
2023-01-29T10:25:53.983Z,92.51
2023-01-29T10:28:26.788Z,92.03
2023-01-29T10:30:59.073Z,92.13
2023-01-29T10:33:48.783Z,91.47
2023-01-29T10:36:27.485Z,90.21
2023-01-29T10:38:56.785Z,91.08
2023-01-29T10:41:43.175Z,90.69
2023-01-29T10:44:25.478Z,90.73
2023-01-29T10:47:17.479Z,91.51
2023-01-29T10:50:10.265Z,91.18
2023-01-29T10:52:51.820Z,91.62
2023-01-29T10:55:29.835Z,91.94
2023-01-29T10:58:08.506Z,92.64
2023-01-29T11:00:40.484Z,92.72
2023-01-29T11:03:27.126Z,91.84
2023-01-29T11:06:14.673Z,90.43
2023-01-29T11:08:47.955Z,89.86
2023-01-29T11:11:18.731Z,91.95
2023-01-29T11:13:52.030Z,91.09
2023-01-29T11:16:20.878Z,91.94
2023-01-29T11:18:55.842Z,91.00
2023-01-29T11:21:28.735Z,91.79
2023-01-29T11:24:18.797Z,91.72
2023-01-29T11:26:50.149Z,91.42
2023-01-29T11:29:38.662Z,91.50
2023-01-29T11:32:09.522Z,91.94
2023-01-29T11:34:58.256Z,92.27
2023-01-29T11:37:34.814Z,91.85
2023-01-29T11:40:02.867Z,91.45
2023-01-29T11:42:33.822Z,91.23
2023-01-29T11:45:02.187Z,91.85
2023-01-29T11:47:31.496Z,91.34
2023-01-29T11:50:04.154Z,91.82
2023-01-29T11:52:40.787Z,91.36
2023-01-29T11:55:20.665Z,90.72
2023-01-29T11:57:52.698Z,91.56
2023-01-29T12:00:24.772Z,90.88
2023-01-29T12:02:56.664Z,91.49
2023-01-29T12:05:27.263Z,91.28
2023-01-29T12:08:01.583Z,91.00
2023-01-29T12:10:36.500Z,91.51
2023-01-29T12:13:20.045Z,90.81
2023-01-29T12:15:50.463Z,89.92
2023-01-29T12:18:31.475Z,89.16
2023-01-29T12:21:04.359Z,90.05
2023-01-29T12:23:39.866Z,90.34
2023-01-29T12:26:16.475Z,90.28
2023-01-29T12:28:53.145Z,90.46
2023-01-29T12:31:30.251Z,90.79
2023-01-29T12:34:04.283Z,90.33
2023-01-29T12:36:38.667Z,89.24
2023-01-29T12:39:11.161Z,89.37
2023-01-29T12:41:46.122Z,89.63
2023-01-29T12:44:19.367Z,89.02
2023-01-29T12:46:53.436Z,89.03
2023-01-29T12:49:24.934Z,89.28
2023-01-29T12:52:00.208Z,89.40
2023-01-29T12:54:36.305Z,89.52
2023-01-29T12:57:12.019Z,89.30
2023-01-29T12:59:44.336Z,88.61
2023-01-29T13:02:25.269Z,88.68
2023-01-29T13:04:58.557Z,88.58
2023-01-29T13:07:32.613Z,88.95
2023-01-29T13:10:08.417Z,89.62
2023-01-29T13:12:38.239Z,88.72
2023-01-29T13:15:16.684Z,88.43
2023-01-29T13:17:48.623Z,88.99
2023-01-29T13:20:22.144Z,88.41
2023-01-29T13:22:54.456Z,88.32
2023-01-29T13:25:23.944Z,88.41
2023-01-29T13:27:52.120Z,88.74
2023-01-29T13:30:30.297Z,88.60
2023-01-29T13:33:09.545Z,88.33
2023-01-29T13:35:41.315Z,89.55
2023-01-29T13:38:24.279Z,89.97
2023-01-29T13:40:57.720Z,89.56
2023-01-29T13:43:26.066Z,88.76
2023-01-29T13:45:55.883Z,89.29
2023-01-29T13:48:28.279Z,88.65
2023-01-29T13:50:58.478Z,88.37
2023-01-29T13:53:29.672Z,89.09
2023-01-29T13:56:30.301Z,89.26
2023-01-29T13:58:59.490Z,89.08
2023-01-29T14:02:03.861Z,89.27
2023-01-29T14:04:34.199Z,89.15
2023-01-29T14:07:04.100Z,89.79
2023-01-29T14:10:05.537Z,89.85
2023-01-29T14:12:50.760Z,90.00
2023-01-29T14:15:32.376Z,90.30
2023-01-29T14:18:18.307Z,90.22
2023-01-29T14:21:01.166Z,90.75
2023-01-29T14:23:35.731Z,90.99
2023-01-29T14:26:06.941Z,91.05
2023-01-29T14:28:36.496Z,90.87
2023-01-29T14:31:05.142Z,91.13
2023-01-29T14:33:37.542Z,91.66
2023-01-29T14:36:08.013Z,91.83
2023-01-29T14:38:37.363Z,92.23
2023-01-29T14:41:16.046Z,92.39
2023-01-29T14:43:46.056Z,91.79
2023-01-29T14:46:43.561Z,92.00
2023-01-29T14:49:12.684Z,91.77
2023-01-29T14:51:45.749Z,91.68
2023-01-29T14:54:22.870Z,91.49
2023-01-29T14:56:59.546Z,91.83
2023-01-29T14:59:34.543Z,91.42
2023-01-29T15:02:14.291Z,91.58
2023-01-29T15:04:48.062Z,91.90
2023-01-29T15:07:31.078Z,91.58
2023-01-29T15:10:21.882Z,92.04
2023-01-29T15:12:58.130Z,91.55
2023-01-29T15:15:38.981Z,92.09
2023-01-29T15:18:10.234Z,91.98
2023-01-29T15:20:41.980Z,92.67
2023-01-29T15:23:27.126Z,92.65
2023-01-29T15:25:57.679Z,92.61
2023-01-29T15:28:28.298Z,92.81
2023-01-29T15:30:59.244Z,92.53
2023-01-29T15:33:29.166Z,92.30
2023-01-29T15:36:07.398Z,92.40
2023-01-29T15:38:35.940Z,92.73
2023-01-29T15:41:16.052Z,93.39
2023-01-29T15:43:47.324Z,93.70
2023-01-29T15:46:22.683Z,93.37
2023-01-29T15:48:52.156Z,93.34
2023-01-29T15:51:23.873Z,93.32
2023-01-29T15:53:54.938Z,93.29
2023-01-29T15:56:28.636Z,93.30
2023-01-29T15:59:00.126Z,93.12
2023-01-29T16:01:30.606Z,93.26
2023-01-29T16:04:02.371Z,93.29
2023-01-29T16:06:35.627Z,93.43
2023-01-29T16:09:06.675Z,93.79
2023-01-29T16:11:36.282Z,93.79
2023-01-29T16:14:05.847Z,94.23
2023-01-29T16:16:36.258Z,94.03
2023-01-29T16:19:14.154Z,94.53
2023-01-29T16:21:46.433Z,94.21
2023-01-29T16:24:22.260Z,94.11
2023-01-29T16:26:53.493Z,94.54
2023-01-29T16:29:23.527Z,94.80
2023-01-29T16:32:02.205Z,95.10
2023-01-29T16:34:33.615Z,94.53
2023-01-29T16:37:03.834Z,94.47
2023-01-29T16:39:34.924Z,94.30
2023-01-29T16:42:23.754Z,94.81
2023-01-29T16:44:54.183Z,94.89
2023-01-29T16:47:29.527Z,94.58
2023-01-29T16:50:01.394Z,94.81
2023-01-29T16:52:31.438Z,94.43
2023-01-29T16:55:07.032Z,94.31
2023-01-29T16:57:35.457Z,94.21
2023-01-29T17:00:09.397Z,93.91
2023-01-29T17:02:40.816Z,94.03
2023-01-29T17:05:11.870Z,93.74
2023-01-29T17:07:40.118Z,93.64
2023-01-29T17:10:08.784Z,93.64
2023-01-29T17:12:38.899Z,93.80
2023-01-29T17:15:37.013Z,93.67
2023-01-29T17:18:13.045Z,93.57
2023-01-29T17:20:41.477Z,93.63
2023-01-29T17:23:09.425Z,93.90
2023-01-29T17:25:38.233Z,94.11
2023-01-29T17:28:07.400Z,94.10
2023-01-29T17:30:37.586Z,93.77
2023-01-29T17:33:15.103Z,93.85
2023-01-29T17:35:44.300Z,93.79
2023-01-29T17:38:24.273Z,93.92
2023-01-29T17:40:57.758Z,94.15
2023-01-29T17:43:25.745Z,94.63
2023-01-29T17:45:55.664Z,95.87
2023-01-29T17:48:25.719Z,96.30
2023-01-29T17:50:56.456Z,96.49
2023-01-29T17:53:30.531Z,96.51
2023-01-29T17:56:05.030Z,96.80
2023-01-29T17:58:32.915Z,97.59
2023-01-29T18:01:02.617Z,98.38
2023-01-29T18:03:31.276Z,99.27
2023-01-29T18:05:59.405Z,99.99
2023-01-29T18:08:31.225Z,99.99
2023-01-29T18:10:59.613Z,99.99
2023-01-29T18:13:27.585Z,99.99
2023-01-29T18:15:56.725Z,99.99
2023-01-29T18:18:26.366Z,99.99
2023-01-29T18:20:54.546Z,99.99
2023-01-29T18:23:22.799Z,99.99
2023-01-29T18:25:52.799Z,99.99
2023-01-29T18:28:20.832Z,99.99
2023-01-29T18:30:49.031Z,99.99
2023-01-29T18:33:18.107Z,99.99
2023-01-29T18:35:49.104Z,99.99
2023-01-29T18:38:19.052Z,99.99
2023-01-29T18:40:47.119Z,99.99
2023-01-29T18:43:16.068Z,99.99
2023-01-29T18:45:44.772Z,99.99
2023-01-29T18:48:12.793Z,99.99
2023-01-29T18:50:41.294Z,99.99
2023-01-29T18:53:11.158Z,99.99
2023-01-29T18:55:39.532Z,99.99
2023-01-29T18:58:27.494Z,99.99
2023-01-29T19:00:55.471Z,99.99
2023-01-29T19:03:23.427Z,99.99
2023-01-29T19:05:52.336Z,99.99
2023-01-29T19:08:21.573Z,99.99
2023-01-29T19:10:50.119Z,99.99
2023-01-29T19:13:18.075Z,99.99
2023-01-29T19:15:48.106Z,99.99
2023-01-29T19:18:16.155Z,99.99
2023-01-29T19:20:44.296Z,99.99
2023-01-29T19:23:12.188Z,99.99
2023-01-29T19:25:41.649Z,99.99
2023-01-29T19:28:09.635Z,99.99
2023-01-29T19:30:38.093Z,99.99
2023-01-29T19:33:06.780Z,99.99
2023-01-29T19:35:37.826Z,99.99
2023-01-29T19:38:06.231Z,99.99
2023-01-29T19:40:34.746Z,99.99
2023-01-29T19:43:04.061Z,99.99
2023-01-29T19:45:48.887Z,99.99
2023-01-29T19:48:22.149Z,99.99
2023-01-29T19:50:54.189Z,99.99
2023-01-29T19:53:22.898Z,99.99
2023-01-29T19:55:58.903Z,99.99
2023-01-29T19:58:29.482Z,99.99
2023-01-29T20:00:58.495Z,99.99
2023-01-29T20:03:29.727Z,99.99
2023-01-29T20:06:02.877Z,99.99
2023-01-29T20:08:31.166Z,99.99
2023-01-29T20:10:59.191Z,99.99
2023-01-29T20:13:30.038Z,99.99
2023-01-29T20:15:58.128Z,99.99
2023-01-29T20:18:26.362Z,99.99
2023-01-29T20:20:54.837Z,99.99
2023-01-29T20:23:37.044Z,99.99
2023-01-29T20:26:08.476Z,99.99
2023-01-29T20:28:38.261Z,99.99
2023-01-29T20:31:09.804Z,99.99
2023-01-29T20:33:39.679Z,99.99
2023-01-29T20:36:10.910Z,99.99
2023-01-29T20:38:40.139Z,99.99
2023-01-29T20:41:09.248Z,99.99
2023-01-29T20:43:40.579Z,99.99
2023-01-29T20:46:09.193Z,99.99
2023-01-29T20:48:37.885Z,99.99
2023-01-29T20:51:10.312Z,99.99
2023-01-29T20:53:38.498Z,99.99
2023-01-29T20:56:07.651Z,99.99
2023-01-29T20:58:36.790Z,99.99
2023-01-29T21:01:10.588Z,99.99
2023-01-29T21:03:40.122Z,99.99
2023-01-29T21:06:09.064Z,99.99
2023-01-29T21:08:38.147Z,99.99
2023-01-29T21:11:11.038Z,99.99
2023-01-29T21:13:39.085Z,99.99
2023-01-29T21:16:11.739Z,99.99
2023-01-29T21:18:40.490Z,99.99
2023-01-29T21:21:08.786Z,99.99
2023-01-29T21:23:37.792Z,99.99
2023-01-29T21:26:07.293Z,99.99
2023-01-29T21:28:36.005Z,99.99
2023-01-29T21:31:05.726Z,99.99
2023-01-29T21:33:39.283Z,99.99
2023-01-29T21:36:10.672Z,99.99
2023-01-29T21:38:38.968Z,99.99
2023-01-29T21:41:08.881Z,99.99
2023-01-29T21:43:37.034Z,99.99
2023-01-29T21:46:11.553Z,99.99
2023-01-29T21:48:42.359Z,99.99
2023-01-29T21:51:10.376Z,99.99
2023-01-29T21:53:38.304Z,99.99
2023-01-29T21:56:07.374Z,99.99
2023-01-29T21:58:35.495Z,99.99
2023-01-29T22:01:36.403Z,99.99
2023-01-29T22:03:54.906Z,99.99
2023-01-29T22:06:22.910Z,99.99
2023-01-29T22:08:51.344Z,99.99
2023-01-29T22:11:20.061Z,99.99
2023-01-29T22:13:47.990Z,99.99
2023-01-29T22:16:16.434Z,99.99
2023-01-29T22:18:44.399Z,99.99
2023-01-29T22:21:13.731Z,99.99
2023-01-29T22:23:42.146Z,99.99
2023-01-29T22:26:12.313Z,99.99
2023-01-29T22:28:40.665Z,99.99
2023-01-29T22:31:08.905Z,99.99
2023-01-29T22:33:37.434Z,99.99
2023-01-29T22:36:06.142Z,99.99
2023-01-29T22:38:38.116Z,99.99
2023-01-29T22:41:07.211Z,99.99
2023-01-29T22:43:35.984Z,99.99
2023-01-29T22:46:09.106Z,99.99
2023-01-29T22:48:37.183Z,99.99
2023-01-29T22:51:14.868Z,99.99
2023-01-29T22:53:49.256Z,99.99
2023-01-29T22:56:18.170Z,99.99
2023-01-29T22:58:46.280Z,99.99
2023-01-29T23:01:14.388Z,99.99
2023-01-29T23:03:42.955Z,99.96
2023-01-29T23:06:11.214Z,99.99
2023-01-29T23:08:39.137Z,99.99
2023-01-29T23:11:19.099Z,99.99
2023-01-29T23:13:49.577Z,99.99
2023-01-29T23:16:19.833Z,99.99
2023-01-29T23:18:51.124Z,99.99
2023-01-29T23:21:21.368Z,99.99
2023-01-29T23:23:49.650Z,99.99
2023-01-29T23:26:40.699Z,99.99
2023-01-29T23:29:08.738Z,99.99
2023-01-29T23:31:36.805Z,99.99
2023-01-29T23:34:05.893Z,99.99
2023-01-29T23:36:33.875Z,99.99
2023-01-29T23:39:02.350Z,99.99
2023-01-29T23:41:32.301Z,99.99
2023-01-29T23:44:00.088Z,99.99
2023-01-29T23:46:28.140Z,99.99
2023-01-29T23:48:56.605Z,99.99
2023-01-29T23:51:24.919Z,99.99
2023-01-29T23:53:53.451Z,99.99
2023-01-29T23:56:22.008Z,99.99
2023-01-29T23:58:55.600Z,99.99
